Hallo Guest
Login
Close
Registration
Close
Sonnenertrag beschäftigt sich in erster Linie mit Photovoltaik und nachhaltigen Energien. Wir unterhalten die Photovoltaik Datenbank in der unsere Nutzer ihre Erträge und Anlagen untereinander vergleiche können. Neu ist der Datenimport über Solarlog und Sunnyreport.
Announcement Announcement
Donate now

Hier sehen Sie die aktuellen Spenden. Wir freuen uns über jeden Beitrag. Nur gemeinsam sind wir stark!

Alle neuen Spenden hier.

Our top sponsors

Most recent donations

All facilities

All facilities

With "all facilities" can you see all photovoltaic facilities that have entered already revenues in the current month. Also other months can be chosen manually. With a click on a column title can you sort and compare the photovoltaic facilities.

 

Duration: 12.2019 until 12.2019

Current sorting by: upwards

No. Revenue
in kWh
Efficiency
in kWh/kWp
Parts Postal Code Country start Update Name
-49 124,30 19,24 1 29386 Germany 2010 01.01 00:28 Meine PV-Anlage 1
-48 179,90 18,28 1 36093 Germany 2010 01.01 01:02 Schmitt - Photovoltaik 01
-47 78,64 17,48 2 5709NR Netherlands 2014 01.01 01:54 FGA Solar Factory
-46 38007,00 25,77 1 94356 Germany 2008 01.01 03:03 PV-Anlage 1,4mW
-45 181,91 20,21 1 59073 Germany 2010 01.01 03:04 cosmic-solar
-44 57,55 19,02 1 9820 Belgium 2014 01.01 05:21 Bart_Merel
-43 94,50 21,48 1 65428 Germany 2008 01.01 06:18 Sundown
-42 293,00 28,17 1 34431 Germany 2006 01.01 06:59 solarhans
-41 796,00 26,86 1 01156 Germany 2015 01.01 08:19 PV Pomsel DD2
-40 170,00 14,53 1 57577 Germany 2009 01.01 08:24 spopi93
-39 257,70 24,34 1 95703 Germany 2009 01.01 08:26 SOLEATEUR
-38 450,00 28,57 1 56869 Germany 2008 01.01 08:37 peter1011
-37 205,17 45,44 1 3244 Austria 2009 01.01 08:38 Sunegg
-36 17,20 30,99 1 2880 Belgium 2010 01.01 08:47 Herman 1
-35 425,00 27,14 1 96253 Germany 2009 01.01 09:05 solman1
-34 96,20 34,36 1 72800 Germany 2009 01.01 09:07 de erscht
-33 48,60 11,57 1 01796 Germany 2007 01.01 09:16 Felix-Solar
-32 609,70 42,91 1 99192 Germany 2010 01.01 09:25 PV-Anlage 87
-31 112,27 23,39 1 3100 Austria 2012 01.01 09:28 Sonnenkraftwerk
-30 567,04 33,75 1 90584 Germany 2010 01.01 09:34 Sunny52
-29 45,09 14,05 1 1507tk Netherlands 2012 01.01 09:35 M.Z.E.
-28 753,00 58,10 1 72218 Germany 2009 01.01 09:38 Effringen
-27 247,60 30,23 1 94099 Germany 2012 01.01 09:43 Helmut
-26 81,45 30,85 1 8792 Belgium 2012 01.01 09:50 Edwin
-25 564,91 41,48 2 84140 Germany 2009 01.01 09:50 Filpe_AKS_10
-24 160,45 39,86 1 82299 Germany 2008 01.01 09:55 Anjatomy . Türkenfeld
-23 476,00 43,10 1 86500 Germany 2011 01.01 09:57 CO2-Geizhals
-22 171,30 30,36 1 63667 Germany 2009 01.01 10:00 Marwen
-21 211,00 37,21 1 79341 Germany 2009 01.01 10:15 rolkes-solar
-20 133,10 14,10 1 94451 Germany 2018 01.01 10:16 Sondorf2
-19 175,30 39,84 1 84416 Germany 2008 01.01 10:21 relu_strom
-18 153,78 40,05 1 78333 Germany 2011 01.01 10:22 Hegausolar
-17 184,00 24,48 1 32469 Germany 2005 01.01 10:23 Burkhard
-16 150,50 25,42 1 8400 Belgium 2008 01.01 10:25 gsurmont
-15 667,38 49,66 1 71149 Germany 2009 01.01 10:26 wasautt
-14 895,00 26,18 1 71149 Germany 2017 01.01 10:27 wasautt 2
-13 304,00 25,33 1 33428 Germany 2006 01.01 10:29 Roger
-12 360,60 36,80 1 94351 Germany 2007 01.01 10:35 happy
-11 176,50 32,69 1 74909 Germany 2007 01.01 10:35 zimbo
-10 1261,00 58,24 1 92369 Germany 2011 01.01 10:37 Teil 1
-9 40,03 9,27 1 34379 Germany 2011 01.01 10:45 Märgner
-8 718,00 46,20 1 75392 Germany 2005 01.01 10:46 Werner und Thea
-7 157,00 36,73 1 87734 Germany 2008 01.01 10:57 Allgäu-Strom-2008
-6 55,14 15,58 1 12527 Germany 2018 01.01 11:06 SOL
-5 974,80 33,11 1 01833 Germany 2010 01.01 11:09 solon1
-4 195,00 22,81 1 39116 Germany 2012 01.01 11:09 Sonnenopel
-3 243,00 31,40 1 32469 Germany 2010 01.01 11:10 SeSoLa
-2 280,44 28,44 1 94154 Germany 2008 01.01 11:15 Schuhmann
-1 160,00 20,46 1 45721 Germany 2009 01.01 11:18 ToSo
0 54,00 24,00 1 01737 Germany 2010 01.01 11:20 Sonnenseite AN3